Time;durP1;ratioP1;P1;durP2;ratioP2;P2;SDS_P1;SDS_P2;PMS_P1;PMS_P2;Temp;Humidity;BMP_temperature;BMP_pressure;BME280_temperature;BME280_humidity;BME280_pressure;Samples;Min_cycle;Max_cycle;Signal;HPM_P1;HPM_P2
2022/05/01 00:00:38;;;;;;;14.70;7.60;;;;;;;11.66;48.79;99899.27;25110;1313;3028959;-66
2022/05/01 00:03:07;;;;;;;18.20;7.70;;;;;;;11.71;48.80;99901.64;25189;1313;3026225;-66
2022/05/01 00:05:37;;;;;;;13.70;8.10;;;;;;;11.71;49.49;99901.79;25128;1315;3070349;-67
2022/05/01 00:08:07;;;;;;;18.40;8.90;;;;;;;11.72;49.77;99904.91;25122;1313;3026879;-64
2022/05/01 00:10:36;;;;;;;18.50;7.90;;;;;;;11.70;49.76;99909.40;25149;1315;3053556;-66
2022/05/01 00:13:08;;;;;;;15.30;8.10;;;;;;;11.68;49.70;99910.41;25149;1313;3027423;-66
2022/05/01 00:15:37;;;;;;;18.60;8.00;;;;;;;11.70;49.41;99914.16;25114;1313;3030307;-63
2022/05/01 00:18:08;;;;;;;18.10;8.70;;;;;;;11.66;50.07;99910.18;25106;1313;3026302;-66
2022/05/01 00:20:37;;;;;;;16.80;8.70;;;;;;;11.61;50.44;99906.77;25123;1315;3026388;-65
2022/05/01 00:23:06;;;;;;;21.80;8.50;;;;;;;11.51;51.86;99903.82;25161;1313;3026302;-64
2022/05/01 00:25:35;;;;;;;19.20;8.00;;;;;;;11.41;51.54;99902.96;25125;1313;3053718;-62
2022/05/01 00:28:04;;;;;;;19.30;8.30;;;;;;;11.33;51.96;99903.09;25035;1315;3026910;-70
2022/05/01 00:30:35;;;;;;;26.20;9.00;;;;;;;11.23;53.21;99905.77;25148;1313;3051285;-66
2022/05/01 00:38:41;;;;;;;21.70;10.30;;;;;;;11.03;57.16;99923.00;25097;1315;3055675;-66
2022/05/01 00:41:11;;;;;;;22.00;10.00;;;;;;;10.98;58.86;99932.59;25089;1314;3026830;-66
2022/05/01 00:44:03;;;;;;;21.40;11.20;;;;;;;10.91;59.50;99939.61;25153;1315;3054787;-67
2022/05/01 00:46:33;;;;;;;23.50;10.40;;;;;;;10.90;58.22;99937.89;25147;1315;3056775;-63
2022/05/01 00:49:04;;;;;;;18.00;10.00;;;;;;;10.96;56.49;99934.42;25129;1313;3026447;-68
2022/05/01 00:51:36;;;;;;;24.60;10.40;;;;;;;10.98;55.96;99932.23;25146;1313;3026414;-69
2022/05/01 00:54:07;;;;;;;17.40;9.80;;;;;;;11.03;55.43;99935.83;25068;1314;3027255;-65
2022/05/01 00:56:41;;;;;;;19.50;9.70;;;;;;;11.02;54.78;99930.94;25119;1313;3026157;-64
2022/05/01 00:59:10;;;;;;;22.10;10.10;;;;;;;11.01;54.46;99931.88;25167;1315;3026154;-65
2022/05/01 01:01:42;;;;;;;18.70;8.50;;;;;;;10.99;54.10;99930.73;25115;1313;3027395;-66
2022/05/01 01:04:11;;;;;;;20.40;8.70;;;;;;;11.00;53.84;99932.30;25148;1313;3026587;-67
2022/05/01 01:06:44;;;;;;;22.10;8.60;;;;;;;11.03;53.61;99929.47;25127;1317;3026553;-65
2022/05/01 01:09:13;;;;;;;23.50;9.00;;;;;;;11.16;52.66;99928.27;25089;1313;3026904;-66
2022/05/01 01:11:42;;;;;;;15.50;8.60;;;;;;;11.27;52.79;99923.98;25104;1313;3026364;-66
2022/05/01 01:14:11;;;;;;;17.80;9.10;;;;;;;11.32;52.46;99922.80;25136;1315;3028582;-67
2022/05/01 01:16:44;;;;;;;18.50;8.80;;;;;;;11.35;52.77;99921.25;25096;1314;3051740;-64
2022/05/01 01:19:13;;;;;;;23.80;8.80;;;;;;;11.33;53.18;99923.27;25112;1314;3027134;-64
2022/05/01 01:21:42;;;;;;;20.30;9.70;;;;;;;11.33;52.65;99921.84;25155;1314;3027002;-68
2022/05/01 01:24:11;;;;;;;19.10;8.60;;;;;;;11.34;53.16;99926.39;25142;1314;3050326;-63
2022/05/01 01:26:41;;;;;;;17.40;8.20;;;;;;;11.34;52.91;99929.16;25127;1314;3026369;-63
2022/05/01 01:31:58;;;;;;;17.30;7.60;;;;;;;11.23;53.64;99932.23;25107;1313;3052203;-65
2022/05/01 01:34:30;;;;;;;20.70;8.50;;;;;;;11.21;53.26;99933.93;25071;1314;3026852;-65
2022/05/01 01:37:00;;;;;;;18.90;7.80;;;;;;;11.19;54.04;99937.36;25120;1315;3051599;-67
2022/05/01 01:39:29;;;;;;;17.50;7.70;;;;;;;11.15;54.09;99936.16;25174;1314;3026939;-63
2022/05/01 01:41:59;;;;;;;17.60;8.30;;;;;;;11.15;54.08;99933.77;25121;1313;3055029;-67
2022/05/01 01:44:29;;;;;;;14.50;7.00;;;;;;;11.14;54.00;99933.09;25111;1314;3026681;-62
2022/05/01 01:46:59;;;;;;;12.50;7.20;;;;;;;11.19;52.93;99933.67;25103;1313;3027582;-63
2022/05/01 01:49:28;;;;;;;15.30;6.80;;;;;;;11.26;51.75;99934.16;25239;1314;3026490;-65
2022/05/01 01:51:57;;;;;;;11.20;6.40;;;;;;;11.32;50.81;99938.39;25427;1313;3026327;-62
2022/05/01 01:54:26;;;;;;;11.10;6.40;;;;;;;11.36;50.59;99937.12;25459;1315;3067138;-61
2022/05/01 01:56:56;;;;;;;10.30;5.70;;;;;;;11.40;50.03;99938.14;25446;1313;3026240;-64
2022/05/01 01:59:26;;;;;;;11.50;5.50;;;;;;;11.43;49.46;99939.73;25143;1313;3026727;-66
2022/05/01 02:01:55;;;;;;;10.90;5.40;;;;;;;11.47;48.77;99940.03;25132;1315;3026691;-64
2022/05/01 02:04:25;;;;;;;12.70;5.50;;;;;;;11.51;48.98;99945.75;25104;1315;3047114;-64
2022/05/01 02:06:54;;;;;;;11.20;5.30;;;;;;;11.58;49.00;99950.92;25070;1314;3027534;-62
2022/05/01 02:09:23;;;;;;;12.60;6.40;;;;;;;11.62;49.77;99950.41;25153;1314;3026914;-61
2022/05/01 02:11:53;;;;;;;11.50;6.30;;;;;;;11.63;49.68;99948.95;25148;1313;3051767;-66
2022/05/01 02:14:22;;;;;;;14.80;5.90;;;;;;;11.64;49.32;99948.53;25153;1313;3028603;-66
2022/05/01 02:16:57;;;;;;;14.20;6.00;;;;;;;11.65;49.64;99951.79;25128;1314;3026760;-65
2022/05/01 02:19:26;;;;;;;12.70;5.20;;;;;;;11.71;49.69;99949.02;25051;1313;3027055;-66
2022/05/01 02:21:55;;;;;;;11.80;5.40;;;;;;;11.76;49.49;99951.37;25090;1313;3026473;-65
2022/05/01 02:24:25;;;;;;;8.90;5.50;;;;;;;11.79;49.49;99954.73;25143;1313;3055051;-61
2022/05/01 02:26:54;;;;;;;13.90;6.00;;;;;;;11.80;48.90;99957.44;25174;1313;3026804;-65
2022/05/01 02:29:25;;;;;;;12.40;5.50;;;;;;;11.78;48.87;99958.61;25117;1313;3027059;-67
2022/05/01 02:31:55;;;;;;;15.30;6.50;;;;;;;11.75;48.78;99957.21;25071;1314;3027071;-67
2022/05/01 02:34:24;;;;;;;12.10;6.60;;;;;;;11.76;48.92;99963.66;25124;1314;3026530;-64
2022/05/01 02:36:55;;;;;;;16.00;6.30;;;;;;;11.78;48.58;99961.95;25150;1313;3026773;-68
2022/05/01 02:39:24;;;;;;;10.00;5.90;;;;;;;11.75;49.19;99962.81;25020;1316;3026303;-65
2022/05/01 02:41:53;;;;;;;15.80;6.40;;;;;;;11.72;49.42;99964.71;25057;1315;3053517;-66
2022/05/01 02:44:22;;;;;;;17.10;5.80;;;;;;;11.67;50.26;99960.81;25113;1314;3026612;-65
2022/05/01 02:46:51;;;;;;;10.60;5.60;;;;;;;11.66;50.09;99958.95;25126;1314;3054333;-67
2022/05/01 02:49:22;;;;;;;9.80;6.00;;;;;;;11.70;50.05;99959.42;25147;1313;3026436;-65
2022/05/01 02:51:53;;;;;;;11.70;5.80;;;;;;;11.73;49.80;99966.08;25107;1314;3050894;-65
2022/05/01 02:54:22;;;;;;;11.90;5.50;;;;;;;11.77;49.90;99965.18;25192;1314;3026927;-67
2022/05/01 02:56:54;;;;;;;12.20;5.90;;;;;;;11.78;49.51;99969.86;25149;1314;3028180;-65
2022/05/01 02:59:23;;;;;;;12.30;5.70;;;;;;;11.82;49.06;99973.65;25111;1314;3026450;-66
2022/05/01 03:01:51;;;;;;;9.20;5.20;;;;;;;11.85;48.57;99972.07;25060;1315;3052323;-64
2022/05/01 03:04:21;;;;;;;11.20;5.40;;;;;;;11.88;48.32;99973.99;25064;1317;3026600;-64
2022/05/01 03:06:50;;;;;;;11.30;5.60;;;;;;;11.91;48.61;99976.65;25105;1314;3026493;-63
2022/05/01 03:09:20;;;;;;;9.60;5.00;;;;;;;11.92;48.23;99979.21;25033;1314;3026804;-65
2022/05/01 03:11:51;;;;;;;9.90;5.20;;;;;;;11.95;47.87;99980.66;25091;1317;3026763;-64
2022/05/01 03:14:21;;;;;;;8.90;4.50;;;;;;;11.94;47.78;99986.84;25088;1314;3026795;-64
2022/05/01 03:16:50;;;;;;;12.40;4.90;;;;;;;11.98;46.97;99988.92;25160;1314;3026771;-64
2022/05/01 03:22:16;;;;;;;8.50;4.20;;;;;;;12.05;46.26;99994.09;25091;1314;3053044;-67
2022/05/01 03:24:45;;;;;;;13.80;5.60;;;;;;;12.05;45.03;99996.39;25092;1316;3053839;-65
2022/05/01 03:27:14;;;;;;;7.60;3.90;;;;;;;12.07;45.57;99998.41;25100;1314;3026292;-64
2022/05/01 03:30:15;;;;;;;9.50;4.20;;;;;;;12.12;45.68;99999.31;25152;1314;3026917;-63
2022/05/01 03:32:33;;;;;;;8.20;5.20;;;;;;;12.10;45.91;100002.97;25106;1313;3053780;-63
2022/05/01 03:35:02;;;;;;;16.20;5.30;;;;;;;12.07;46.37;100005.41;25061;1318;3026662;-66
2022/05/01 03:37:31;;;;;;;8.60;4.50;;;;;;;12.08;46.43;100007.98;25115;1315;3055866;-65
2022/05/01 03:40:00;;;;;;;11.50;5.80;;;;;;;12.08;46.19;100009.21;25121;1315;3029018;-65
2022/05/01 03:42:30;;;;;;;12.40;5.40;;;;;;;12.06;45.57;100009.33;25107;1315;3052206;-63
2022/05/01 03:44:59;;;;;;;12.10;5.40;;;;;;;12.02;45.16;100013.77;25052;1315;3025738;-62
2022/05/01 03:47:28;;;;;;;8.80;3.90;;;;;;;11.91;44.01;100017.70;25118;1313;3056903;-63
2022/05/01 03:49:57;;;;;;;5.70;2.80;;;;;;;11.88;43.29;100010.13;25151;1314;3026366;-64
2022/05/01 03:52:26;;;;;;;8.10;3.10;;;;;;;11.90;41.68;100007.91;25053;1315;3054918;-64
2022/05/01 03:54:55;;;;;;;7.50;2.80;;;;;;;12.00;41.11;100005.86;25057;1314;3027145;-65
2022/05/01 03:57:25;;;;;;;6.60;2.70;;;;;;;12.07;41.05;100006.25;25154;1313;3026515;-65
2022/05/01 03:59:53;;;;;;;4.20;2.50;;;;;;;12.16;40.95;100006.80;25157;1313;3052178;-64
2022/05/01 04:02:22;;;;;;;5.60;2.60;;;;;;;12.23;40.58;100007.27;25096;1314;3028057;-64
2022/05/01 04:04:52;;;;;;;6.60;2.50;;;;;;;12.29;40.67;100006.61;25152;1313;3053949;-63
2022/05/01 04:07:21;;;;;;;7.20;3.10;;;;;;;12.34;40.44;100009.98;25101;1315;3026591;-64
2022/05/01 04:09:50;;;;;;;6.70;2.90;;;;;;;12.35;40.90;100009.39;25146;1314;3051449;-64
2022/05/01 04:12:21;;;;;;;6.50;2.90;;;;;;;12.41;40.73;100008.16;25124;1313;3026608;-62
2022/05/01 04:14:51;;;;;;;5.90;3.10;;;;;;;12.44;41.33;100009.92;25101;1313;3026638;-62
2022/05/01 04:17:20;;;;;;;7.30;2.80;;;;;;;12.47;40.23;100009.39;25152;1313;3026599;-65
2022/05/01 04:19:49;;;;;;;9.00;3.10;;;;;;;12.49;39.35;100012.46;25099;1315;3052899;-66
2022/05/01 04:22:18;;;;;;;9.70;3.10;;;;;;;12.52;39.75;100008.41;25164;1313;3026425;-65
2022/05/01 04:24:47;;;;;;;6.60;3.40;;;;;;;12.56;40.59;100009.38;25119;1313;3048729;-61
2022/05/01 04:27:17;;;;;;;7.60;3.50;;;;;;;12.61;41.13;100012.61;25159;1313;3026265;-65
2022/05/01 04:29:46;;;;;;;7.10;3.50;;;;;;;12.65;41.87;100011.48;25173;1314;3026662;-64
2022/05/01 04:32:16;;;;;;;7.30;3.10;;;;;;;12.68;40.84;100017.10;25120;1313;3049131;-64
2022/05/01 04:34:45;;;;;;;7.30;2.90;;;;;;;12.74;39.30;100015.48;25132;1313;3027024;-65
2022/05/01 04:37:14;;;;;;;7.20;2.60;;;;;;;12.79;38.53;100015.55;25149;1314;3026415;-64
2022/05/01 04:39:43;;;;;;;7.70;3.20;;;;;;;12.85;38.76;100019.41;25100;1313;3051163;-65
2022/05/01 04:42:15;;;;;;;6.20;3.90;;;;;;;12.90;38.86;100019.07;25138;1313;3029883;-64
2022/05/01 04:44:44;;;;;;;5.60;2.40;;;;;;;12.97;38.06;100018.33;25131;1314;3027424;-66
2022/05/01 04:47:13;;;;;;;5.50;1.90;;;;;;;13.02;37.14;100020.83;25128;1313;3026771;-64
2022/05/01 04:49:42;;;;;;;5.20;2.00;;;;;;;13.08;36.85;100021.35;25150;1314;3052909;-62
2022/05/01 04:52:11;;;;;;;5.10;2.00;;;;;;;13.12;36.38;100023.20;25128;1314;3026460;-66
2022/05/01 04:54:40;;;;;;;3.50;2.20;;;;;;;13.17;36.42;100022.33;25087;1314;3048047;-62
2022/05/01 04:57:10;;;;;;;2.70;1.80;;;;;;;13.24;36.63;100022.45;25125;1313;3025885;-66
2022/05/01 04:59:40;;;;;;;3.30;2.10;;;;;;;13.33;37.06;100024.54;25100;1312;3070543;-64
2022/05/01 05:02:10;;;;;;;4.60;2.10;;;;;;;13.40;36.56;100019.03;25158;1313;3027263;-65
2022/05/01 05:04:40;;;;;;;7.30;2.40;;;;;;;13.47;36.80;100020.91;25151;1313;3026797;-64
2022/05/01 05:07:09;;;;;;;5.10;2.00;;;;;;;13.49;36.98;100024.95;25105;1313;3069353;-65
2022/05/01 05:09:56;;;;;;;5.10;2.80;;;;;;;13.52;37.76;100028.09;25154;1313;3026185;-66
2022/05/01 05:12:25;;;;;;;5.90;2.70;;;;;;;13.64;38.37;100028.23;25106;1313;3051911;-66
2022/05/01 05:14:58;;;;;;;6.60;3.00;;;;;;;13.68;38.39;100028.83;25161;1313;3026259;-67
2022/05/01 05:17:28;;;;;;;5.90;3.00;;;;;;;13.76;38.58;100023.38;25114;1313;3050835;-67
2022/05/01 05:19:58;;;;;;;9.70;3.80;;;;;;;13.78;39.13;100024.84;25136;1314;3026387;-63
2022/05/01 05:22:27;;;;;;;5.50;3.30;;;;;;;13.84;40.00;100027.13;25114;1314;3026867;-65
2022/05/01 05:24:56;;;;;;;9.10;3.50;;;;;;;13.89;40.04;100027.33;25124;1313;3027196;-66
2022/05/01 05:27:26;;;;;;;8.70;3.60;;;;;;;13.97;39.62;100026.60;25118;1313;3053098;-66
2022/05/01 05:29:55;;;;;;;9.40;3.90;;;;;;;14.04;39.46;100027.36;25107;1313;3027168;-64
2022/05/01 05:32:25;;;;;;;7.20;3.50;;;;;;;14.07;39.25;100030.36;25157;1313;3046943;-63
2022/05/01 05:34:54;;;;;;;8.20;3.30;;;;;;;14.11;39.08;100032.76;25144;1313;3026789;-65
2022/05/01 05:37:23;;;;;;;8.80;3.60;;;;;;;14.16;38.90;100035.41;25145;1314;3026823;-66
2022/05/01 05:39:52;;;;;;;6.90;3.60;;;;;;;14.20;39.21;100036.89;25127;1313;3051200;-66
2022/05/01 05:42:23;;;;;;;9.20;4.40;;;;;;;14.26;39.03;100038.61;25123;1314;3026378;-65
2022/05/01 05:44:52;;;;;;;11.10;4.80;;;;;;;14.28;39.44;100037.80;25155;1314;3026744;-68
2022/05/01 05:47:21;;;;;;;8.50;5.20;;;;;;;14.29;40.52;100039.14;25133;1313;3048382;-65
2022/05/01 05:49:50;;;;;;;14.80;5.10;;;;;;;14.36;40.60;100041.48;25140;1313;3027908;-64
2022/05/01 05:52:19;;;;;;;12.70;5.00;;;;;;;14.39;41.38;100039.73;25109;1314;3026099;-63
2022/05/01 05:54:48;;;;;;;17.60;4.90;;;;;;;14.42;41.70;100042.83;25139;1314;3051583;-65
2022/05/01 05:57:17;;;;;;;12.40;5.10;;;;;;;14.47;41.97;100045.83;25141;1314;3027529;-68
2022/05/01 05:59:46;;;;;;;12.70;5.80;;;;;;;14.60;41.53;100042.36;25122;1314;3026515;-67
2022/05/01 06:02:17;;;;;;;10.60;4.00;;;;;;;14.68;40.56;100042.17;25085;1314;3051368;-66
2022/05/01 06:04:46;;;;;;;10.00;4.60;;;;;;;14.72;40.65;100040.64;25167;1314;3026400;-67
2022/05/01 06:07:15;;;;;;;10.30;4.60;;;;;;;14.74;40.98;100042.61;25122;1314;3068393;-65
2022/05/01 06:09:44;;;;;;;9.70;5.40;;;;;;;14.86;41.09;100043.73;25153;1315;3026688;-68
2022/05/01 06:12:13;;;;;;;11.20;4.80;;;;;;;14.98;40.83;100044.48;25183;1314;3026243;-66
2022/05/01 06:14:44;;;;;;;10.20;4.50;;;;;;;15.14;40.16;100040.91;25474;1314;3071450;-64
2022/05/01 06:17:13;;;;;;;10.60;4.20;;;;;;;15.23;39.27;100043.14;25604;1314;3026504;-64
2022/05/01 06:19:42;;;;;;;6.60;3.20;;;;;;;15.40;38.40;100038.60;25548;1314;3026630;-66
2022/05/01 06:22:11;;;;;;;7.90;3.00;;;;;;;15.61;37.11;100035.66;25134;1314;3067718;-63
2022/05/01 06:24:41;;;;;;;7.60;3.70;;;;;;;15.58;37.39;100032.36;25125;1314;3026128;-66
2022/05/01 06:27:10;;;;;;;9.10;3.00;;;;;;;15.61;36.52;100034.56;25151;1314;3026597;-68
2022/05/01 06:29:39;;;;;;;13.00;3.20;;;;;;;15.83;35.41;100038.64;25117;1314;3070286;-68
2022/05/01 06:32:08;;;;;;;8.60;2.90;;;;;;;15.91;35.44;100038.08;25136;1314;3027338;-66
2022/05/01 06:34:37;;;;;;;7.80;3.70;;;;;;;15.92;36.16;100040.29;25157;1314;3052635;-69
2022/05/01 06:37:06;;;;;;;5.40;2.50;;;;;;;15.97;35.63;100038.89;25118;1314;3026521;-66
2022/05/01 06:39:35;;;;;;;7.90;2.40;;;;;;;16.03;35.07;100040.19;25141;1314;3028505;-68
2022/05/01 06:42:05;;;;;;;7.10;2.80;;;;;;;16.10;35.03;100037.40;25175;1314;3053857;-70
2022/05/01 06:44:35;;;;;;;8.00;3.00;;;;;;;16.10;35.00;100038.80;25044;1315;3027319;-68
2022/05/01 06:47:05;;;;;;;6.20;2.50;;;;;;;16.06;35.04;100040.13;25167;1315;3026653;-66
2022/05/01 06:49:34;;;;;;;7.30;2.70;;;;;;;16.08;35.39;100044.62;25158;1315;3053205;-67
2022/05/01 06:52:04;;;;;;;5.10;2.30;;;;;;;16.01;35.24;100044.44;25155;1314;3026834;-66
2022/05/01 06:54:33;;;;;;;10.60;2.60;;;;;;;16.17;34.98;100042.19;25121;1314;3054738;-67
2022/05/01 06:57:02;;;;;;;7.60;3.00;;;;;;;16.29;34.42;100046.63;25178;1314;3026760;-68
2022/05/01 06:59:31;;;;;;;7.30;2.80;;;;;;;16.37;34.04;100043.99;25106;1315;3052081;-66
2022/05/01 07:02:01;;;;;;;11.40;3.10;;;;;;;16.44;33.33;100041.00;25148;1315;3027920;-66
2022/05/01 07:04:31;;;;;;;8.70;4.00;;;;;;;16.61;32.86;100043.98;25126;1315;3026504;-66
2022/05/01 07:07:00;;;;;;;9.20;3.10;;;;;;;16.69;32.55;100041.93;25161;1314;3029999;-67
2022/05/01 07:09:32;;;;;;;6.80;2.90;;;;;;;16.79;32.59;100040.84;25159;1315;3054886;-68
2022/05/01 07:12:01;;;;;;;5.80;3.50;;;;;;;16.90;31.89;100040.89;25138;1314;3030289;-65
2022/05/01 07:14:30;;;;;;;5.30;2.90;;;;;;;16.90;31.48;100038.27;25121;1314;3052140;-66
2022/05/01 07:16:59;;;;;;;8.40;3.00;;;;;;;16.90;31.60;100038.39;25147;1314;3027188;-68
2022/05/01 07:19:28;;;;;;;7.90;2.90;;;;;;;16.94;31.84;100036.20;25165;1315;3028941;-68
2022/05/01 07:21:58;;;;;;;6.10;2.50;;;;;;;17.00;31.89;100042.57;25072;1314;3050909;-66
2022/05/01 07:24:28;;;;;;;8.00;3.00;;;;;;;17.06;31.71;100042.68;25151;1315;3026420;-69
2022/05/01 07:26:57;;;;;;;6.20;2.50;;;;;;;17.13;30.88;100041.61;25140;1314;3026917;-67
2022/05/01 07:29:26;;;;;;;5.10;2.00;;;;;;;16.99;30.38;100041.45;25139;1315;3049594;-68
2022/05/01 07:31:55;;;;;;;5.00;2.40;;;;;;;17.05;29.83;100038.17;25108;1315;3026522;-68
2022/05/01 07:34:24;;;;;;;3.90;2.10;;;;;;;16.94;29.48;100035.29;25132;1314;3026358;-65
2022/05/01 07:36:53;;;;;;;10.30;4.40;;;;;;;16.88;29.76;100032.02;25114;1314;3050296;-66
2022/05/01 07:39:22;;;;;;;5.00;2.50;;;;;;;16.90;30.83;100034.53;25127;1314;3026502;-65
2022/05/01 07:41:51;;;;;;;8.00;2.60;;;;;;;16.91;31.22;100036.27;25127;1313;3057885;-66
2022/05/01 07:44:20;;;;;;;6.70;2.70;;;;;;;16.94;31.11;100036.02;25122;1314;3027412;-66
2022/05/01 07:46:51;;;;;;;6.90;2.80;;;;;;;17.00;31.16;100037.10;25140;1314;3054442;-67
2022/05/01 07:49:21;;;;;;;7.50;3.00;;;;;;;17.15;31.10;100040.04;25133;1315;3026187;-70
2022/05/01 07:51:50;;;;;;;8.90;3.10;;;;;;;17.23;31.17;100039.04;25174;1314;3027536;-66
2022/05/01 07:54:19;;;;;;;8.30;2.90;;;;;;;17.20;30.61;100039.06;25159;1314;3026819;-69
2022/05/01 07:56:49;;;;;;;11.60;3.40;;;;;;;17.30;30.72;100042.20;25116;1315;3056708;-67
2022/05/01 07:59:17;;;;;;;13.30;2.70;;;;;;;17.37;30.13;100040.59;25161;1314;3026380;-69
2022/05/01 08:01:47;;;;;;;8.10;3.10;;;;;;;17.53;30.22;100036.80;25174;1314;3051789;-70
2022/05/01 08:04:29;;;;;;;11.50;3.40;;;;;;;17.68;30.06;100033.16;25090;1313;3027174;-65
2022/05/01 08:06:59;;;;;;;7.20;2.70;;;;;;;17.69;30.16;100035.04;25180;1315;3049398;-68
2022/05/01 08:09:29;;;;;;;10.50;2.30;;;;;;;17.82;28.81;100032.67;25181;1314;3026819;-68
2022/05/01 08:11:58;;;;;;;8.30;2.10;;;;;;;17.98;26.54;100026.30;25164;1314;3027992;-68
2022/05/01 08:14:27;;;;;;;6.60;2.20;;;;;;;18.10;26.32;100023.35;25134;1314;3026434;-65
2022/05/01 08:16:56;;;;;;;5.10;2.10;;;;;;;18.29;26.14;100029.21;25188;1314;3055077;-65
2022/05/01 08:22:13;;;;;;;3.70;1.10;;;;;;;18.34;22.01;100027.77;25118;1314;3050786;-65
2022/05/01 08:24:42;;;;;;;5.50;1.20;;;;;;;18.38;22.07;100019.23;25203;1314;3028849;-65
2022/05/01 08:27:11;;;;;;;4.20;1.40;;;;;;;18.53;23.16;100017.95;25153;1314;3055522;-70
2022/05/01 08:29:40;;;;;;;6.10;1.80;;;;;;;18.58;23.60;100014.54;25143;1314;3026601;-68
2022/05/01 08:32:09;;;;;;;6.20;2.30;;;;;;;18.59;24.01;100013.04;25164;1313;3026806;-68
2022/05/01 08:34:39;;;;;;;5.50;2.10;;;;;;;18.70;25.52;100010.35;25117;1315;3058867;-66
2022/05/01 08:37:08;;;;;;;8.20;2.10;;;;;;;18.70;25.18;100006.92;25140;1314;3028584;-66
2022/05/01 08:39:37;;;;;;;6.10;2.10;;;;;;;18.77;25.44;100006.52;25145;1314;3052166;-70
2022/05/01 08:42:06;;;;;;;3.90;2.20;;;;;;;18.90;25.36;100005.27;25126;1314;3026736;-69
2022/05/01 08:44:36;;;;;;;4.90;1.90;;;;;;;19.07;24.99;100002.71;25146;1315;3055249;-68
2022/05/01 08:47:24;;;;;;;4.90;1.90;;;;;;;19.08;24.32;99998.20;25154;1314;3026826;-65
2022/05/01 08:49:55;;;;;;;5.10;1.80;;;;;;;19.19;24.37;99998.86;25125;1314;3059289;-67
2022/05/01 08:52:26;;;;;;;8.30;2.40;;;;;;;19.20;24.17;100002.70;25128;1314;3026527;-69
2022/05/01 08:54:56;;;;;;;6.00;2.00;;;;;;;19.16;23.97;100003.52;25106;1313;3026141;-73
2022/05/01 08:57:27;;;;;;;3.40;2.30;;;;;;;19.09;24.02;99997.98;25125;1315;3026732;-68
2022/05/01 08:59:57;;;;;;;4.90;2.10;;;;;;;19.31;23.68;99987.86;25122;1315;3027030;-69
2022/05/01 09:02:26;;;;;;;3.30;2.10;;;;;;;19.60;23.95;99988.78;25158;1314;3026380;-66
2022/05/01 09:04:58;;;;;;;5.00;1.90;;;;;;;19.75;23.76;99987.05;25108;1317;3026553;-68
2022/05/01 09:07:27;;;;;;;5.00;1.90;;;;;;;19.93;23.56;99982.27;25115;1314;3026893;-69
2022/05/01 09:09:56;;;;;;;4.70;1.80;;;;;;;19.93;23.43;99981.08;25131;1314;3028023;-67
2022/05/01 09:15:14;;;;;;;5.10;2.30;;;;;;;19.86;23.50;99981.10;25147;1314;3054087;-66
2022/05/01 09:18:04;;;;;;;4.90;2.40;;;;;;;19.73;23.62;99978.09;25081;1314;3026885;-67
2022/05/01 09:20:39;;;;;;;4.90;2.20;;;;;;;19.83;23.55;99974.63;25177;1314;3052495;-70
2022/05/01 09:23:08;;;;;;;7.30;2.10;;;;;;;20.03;23.53;99971.60;25207;1314;3052801;-68
2022/05/01 09:25:37;;;;;;;3.20;1.90;;;;;;;20.10;23.68;99972.77;25118;1314;3026886;-69
2022/05/01 09:28:19;;;;;;;6.80;2.70;;;;;;;20.09;24.12;99971.38;25140;1314;3051562;-68
2022/05/01 09:30:50;;;;;;;5.50;2.30;;;;;;;19.93;24.40;99969.09;25156;1315;3053618;-69
2022/05/01 09:33:19;;;;;;;4.00;2.00;;;;;;;19.81;24.72;99965.60;25123;1314;3026928;-69
2022/05/01 09:35:50;;;;;;;5.50;2.40;;;;;;;19.73;25.61;99966.81;25187;1314;3055187;-67
2022/05/01 09:38:26;;;;;;;3.70;1.90;;;;;;;19.74;25.86;99966.34;25092;1314;3028805;-68
2022/05/01 09:40:58;;;;;;;4.10;2.40;;;;;;;19.68;26.14;99965.52;25183;1314;3049435;-69
2022/05/01 09:43:41;;;;;;;7.30;2.40;;;;;;;19.53;26.65;99963.16;25154;1314;3026969;-64
2022/05/01 09:46:21;;;;;;;4.20;2.30;;;;;;;19.32;26.71;99965.31;25157;1315;3055179;-70
2022/05/01 09:48:59;;;;;;;5.80;2.50;;;;;;;19.23;26.73;99962.05;25146;1314;3059559;-68
2022/05/01 09:51:33;;;;;;;10.00;2.20;;;;;;;19.03;27.05;99963.26;25151;1314;3048717;-68
2022/05/01 09:54:05;;;;;;;5.50;2.40;;;;;;;18.96;27.16;99967.27;25128;1315;3055727;-71
2022/05/01 09:57:07;;;;;;;8.60;2.40;;;;;;;18.98;27.25;99964.67;25138;1314;3026775;-68
2022/05/01 09:59:46;;;;;;;7.50;2.80;;;;;;;19.06;27.75;99964.11;25007;1314;3070982;-69
2022/05/01 10:02:15;;;;;;;6.40;2.40;;;;;;;19.39;27.17;99964.22;25130;1314;3049386;-69
2022/05/01 10:04:44;;;;;;;6.30;2.40;;;;;;;19.65;26.68;99962.73;25148;1314;3028199;-67
2022/05/01 10:07:13;;;;;;;4.90;2.10;;;;;;;19.86;25.93;99959.14;25138;1314;3026923;-71
2022/05/01 10:09:43;;;;;;;11.60;2.60;;;;;;;19.79;26.08;99957.61;25096;1314;3050621;-71
2022/05/01 10:12:12;;;;;;;5.20;2.50;;;;;;;19.63;25.65;99961.38;25122;1314;3026890;-68
2022/05/01 10:14:42;;;;;;;5.20;2.50;;;;;;;19.50;25.73;99958.95;25146;1314;3026535;-69
2022/05/01 10:17:11;;;;;;;11.80;5.40;;;;;;;19.42;25.39;99954.70;25151;1314;3026480;-69
2022/05/01 10:19:40;;;;;;;8.60;4.50;;;;;;;19.45;25.47;99951.96;25202;1315;3026696;-71
2022/05/01 10:22:09;;;;;;;5.60;3.00;;;;;;;19.48;25.85;99954.20;25082;1315;3028072;-72
2022/05/01 10:24:39;;;;;;;8.20;3.90;;;;;;;19.52;25.36;99949.50;25160;1314;3056088;-70
2022/05/01 10:27:36;;;;;;;5.00;2.80;;;;;;;19.53;25.62;99947.46;25171;1315;3028546;-70
2022/05/01 10:33:17;;;;;;;20.10;11.70;;;;;;;19.28;25.95;99946.14;25155;1314;3053808;-69
2022/05/01 10:35:54;;;;;;;10.60;5.50;;;;;;;19.12;26.15;99945.43;25125;1313;3069964;-68
2022/05/01 10:38:31;;;;;;;10.30;4.30;;;;;;;19.02;26.71;99945.13;25778;1313;3048862;-68
2022/05/01 10:41:01;;;;;;;5.10;2.90;;;;;;;18.96;26.14;99947.55;25858;1313;3051932;-69
2022/05/01 10:43:36;;;;;;;4.40;2.30;;;;;;;18.95;25.72;99945.15;25598;1315;3026445;-68
2022/05/01 10:46:17;;;;;;;5.10;2.20;;;;;;;18.79;25.97;99946.92;25205;1313;3048861;-71
2022/05/01 10:48:46;;;;;;;5.10;2.70;;;;;;;18.82;26.46;99951.24;25178;1315;3055062;-71
2022/05/01 10:51:28;;;;;;;5.40;2.10;;;;;;;18.89;25.96;99948.38;25172;1314;3028709;-69
2022/05/01 10:54:14;;;;;;;8.30;3.80;;;;;;;18.76;25.63;99946.63;25112;1315;3049993;-71
2022/05/01 10:56:48;;;;;;;6.30;3.40;;;;;;;18.75;26.47;99944.42;25166;1315;3054671;-72
2022/05/01 10:59:47;;;;;;;3.90;2.50;;;;;;;18.84;26.44;99945.94;25121;1314;3052881;-72
2022/05/01 11:02:31;;;;;;;5.00;1.60;;;;;;;18.85;25.66;99939.66;25151;1314;3056636;-69
2022/05/01 11:05:00;;;;;;;9.70;1.60;;;;;;;18.75;25.48;99941.73;25150;1313;3051772;-71
2022/05/01 11:07:29;;;;;;;3.10;1.40;;;;;;;18.73;25.15;99938.59;25094;1314;3026808;-70
2022/05/01 11:10:01;;;;;;;5.20;2.10;;;;;;;18.69;25.14;99939.41;25140;1314;3058024;-72
2022/05/01 11:12:32;;;;;;;3.40;1.80;;;;;;;18.66;25.97;99938.79;25167;1314;3053712;-67
2022/05/01 11:15:06;;;;;;;6.70;2.10;;;;;;;18.67;26.16;99937.50;25094;1315;3026541;-70
2022/05/01 11:17:36;;;;;;;5.80;2.40;;;;;;;18.67;26.31;99936.80;25156;1313;3053938;-70
2022/05/01 11:20:24;;;;;;;4.80;2.70;;;;;;;18.58;25.72;99933.42;25111;1314;3029152;-68
2022/05/01 11:22:55;;;;;;;6.00;2.40;;;;;;;18.49;25.59;99931.60;25131;1314;3052537;-70
2022/05/01 11:25:43;;;;;;;8.00;2.20;;;;;;;18.51;25.77;99932.70;25124;1313;3027218;-70
2022/05/01 11:29:04;;;;;;;6.60;2.10;;;;;;;18.49;26.37;99935.50;25132;1314;3052111;-72
2022/05/01 11:31:36;;;;;;;8.50;2.30;;;;;;;18.52;26.37;99932.36;25000;1320;3052753;-70
2022/05/01 11:34:22;;;;;;;5.20;2.30;;;;;;;18.50;26.20;99934.50;24996;1321;3027360;-69
2022/05/01 11:36:58;;;;;;;6.10;2.40;;;;;;;18.35;26.56;99930.48;25120;1314;3071491;-69
2022/05/01 11:39:45;;;;;;;8.20;2.40;;;;;;;18.25;26.50;99927.93;25125;1315;3050248;-70
2022/05/01 11:42:27;;;;;;;6.50;2.80;;;;;;;18.27;26.29;99926.55;25176;1313;3051257;-70
2022/05/01 11:44:57;;;;;;;6.90;2.10;;;;;;;18.24;26.65;99925.58;25174;1313;3051557;-71
2022/05/01 11:47:27;;;;;;;6.50;2.80;;;;;;;18.21;26.81;99920.17;25169;1314;3027364;-72